Time;durP1;ratioP1;P1;durP2;ratioP2;P2;SDS_P1;SDS_P2;PMS_P1;PMS_P2;Temp;Humidity;BMP_temperature;BMP_pressure;BME280_temperature;BME280_humidity;BME280_pressure;Samples;Min_cycle;Max_cycle;Signal;HPM_P1;HPM_P2
2021/12/02 00:00:23;;;;;;;7.72;1.60;;;4.40;99.90;;;;;;4980939;28;20474;-73
2021/12/02 00:02:48;;;;;;;6.32;1.70;;;4.40;99.90;;;;;;4981445;28;20129;-73
2021/12/02 00:05:14;;;;;;;6.90;1.77;;;4.40;99.90;;;;;;4981464;28;20564;-73
2021/12/02 00:07:39;;;;;;;4.97;1.40;;;4.40;99.90;;;;;;4982384;28;20041;-73
2021/12/02 00:10:05;;;;;;;8.35;1.70;;;4.40;99.90;;;;;;4985173;28;20428;-73
2021/12/02 00:12:31;;;;;;;8.10;1.60;;;4.40;99.90;;;;;;4989154;28;20050;-73
2021/12/02 00:14:59;;;;;;;10.38;1.60;;;4.30;99.90;;;;;;4990160;28;20052;-73
2021/12/02 00:17:33;;;;;;;9.02;1.92;;;4.30;99.90;;;;;;4985366;28;20129;-73
2021/12/02 00:23:28;;;;;;;6.50;1.50;;;4.30;99.90;;;;;;4987488;28;20050;-73
2021/12/02 00:25:57;;;;;;;7.47;1.42;;;4.30;99.90;;;;;;4986429;28;20093;-74
2021/12/02 00:28:28;;;;;;;8.57;1.88;;;4.30;99.90;;;;;;4989620;28;20064;-73
2021/12/02 00:30:58;;;;;;;11.43;1.92;;;4.30;99.90;;;;;;4986698;28;20499;-73
2021/12/02 00:33:25;;;;;;;5.72;1.50;;;4.30;99.90;;;;;;4988651;28;20709;-73
2021/12/02 00:35:51;;;;;;;5.70;1.85;;;4.30;99.90;;;;;;4983673;28;20038;-73
2021/12/02 00:38:19;;;;;;;10.38;1.92;;;4.30;99.90;;;;;;4990064;28;20181;-73
2021/12/02 00:40:45;;;;;;;;;;;4.30;99.90;;;;;;4988088;28;20042;-73
2021/12/02 00:43:11;;;;;;;9.82;1.90;;;4.20;99.90;;;;;;4987657;28;19945;-73
2021/12/02 00:45:40;;;;;;;9.02;1.77;;;4.20;99.90;;;;;;4987898;28;20135;-73
2021/12/02 00:48:07;;;;;;;7.13;2.25;;;4.20;99.90;;;;;;4989863;28;20042;-73
2021/12/02 00:50:34;;;;;;;8.45;1.67;;;4.20;99.90;;;;;;4989628;28;20047;-74
2021/12/02 00:53:00;;;;;;;13.27;2.63;;;4.20;99.90;;;;;;4985873;28;20103;-73
2021/12/02 00:55:26;;;;;;;8.13;2.23;;;4.20;99.90;;;;;;4989702;28;20062;-73
2021/12/02 00:57:53;;;;;;;9.52;2.13;;;4.20;99.90;;;;;;4984712;28;20306;-73
2021/12/02 01:00:18;;;;;;;10.20;2.10;;;4.20;99.90;;;;;;4987309;28;20049;-73
2021/12/02 01:02:45;;;;;;;7.82;1.67;;;4.20;99.90;;;;;;4986801;28;20125;-73
2021/12/02 01:05:10;;;;;;;11.15;2.10;;;4.10;99.90;;;;;;4985228;28;20100;-73
2021/12/02 01:07:37;;;;;;;9.02;1.83;;;4.20;99.90;;;;;;4986023;28;20489;-73
2021/12/02 01:10:04;;;;;;;9.75;1.73;;;4.10;99.90;;;;;;4988617;28;20375;-73
2021/12/02 01:12:29;;;;;;;12.10;2.13;;;4.10;99.90;;;;;;4989482;28;20666;-73
2021/12/02 01:14:55;;;;;;;9.85;1.88;;;4.10;99.90;;;;;;4985063;28;20131;-73
2021/12/02 01:17:21;;;;;;;10.68;2.00;;;4.10;99.90;;;;;;4986188;28;20058;-73
2021/12/02 01:19:46;;;;;;;12.63;2.15;;;4.00;99.90;;;;;;4987296;28;20034;-73
2021/12/02 01:22:13;;;;;;;8.93;1.80;;;4.10;99.90;;;;;;4989355;28;20050;-73
2021/12/02 01:24:41;;;;;;;8.90;1.50;;;4.00;99.90;;;;;;4981678;28;20050;-73
2021/12/02 01:27:09;;;;;;;8.48;1.88;;;4.00;99.90;;;;;;4988893;28;20406;-73
2021/12/02 01:29:37;;;;;;;8.07;1.90;;;4.00;99.90;;;;;;4987264;28;20050;-72
2021/12/02 01:32:07;;;;;;;7.72;2.20;;;4.00;99.90;;;;;;4987649;28;20054;-73
2021/12/02 01:34:33;;;;;;;12.27;1.95;;;4.00;99.90;;;;;;4984038;28;20046;-72
2021/12/02 01:37:01;;;;;;;5.38;1.63;;;4.00;99.90;;;;;;4986372;28;20042;-73
2021/12/02 01:39:28;;;;;;;12.73;2.05;;;4.00;99.90;;;;;;4984387;28;20042;-73
2021/12/02 01:41:57;;;;;;;7.22;1.98;;;3.90;99.90;;;;;;4987102;28;20458;-73
2021/12/02 01:44:25;;;;;;;11.23;1.98;;;4.00;99.90;;;;;;4988441;28;20042;-73
2021/12/02 01:46:56;;;;;;;6.93;1.75;;;3.90;99.90;;;;;;4985855;28;20045;-74
2021/12/02 01:49:25;;;;;;;10.75;1.90;;;4.00;99.90;;;;;;4987316;28;20076;-74
2021/12/02 01:51:54;;;;;;;8.82;2.03;;;4.00;99.90;;;;;;4982048;28;20046;-73
2021/12/02 01:54:22;;;;;;;5.63;1.52;;;4.00;99.90;;;;;;4989050;28;20046;-73
2021/12/02 01:56:52;;;;;;;7.45;1.60;;;4.00;99.90;;;;;;4985051;28;20501;-73
2021/12/02 01:59:33;;;;;;;7.18;1.63;;;3.90;99.90;;;;;;4984723;28;20502;-73
2021/12/02 02:02:01;;;;;;;9.07;1.85;;;3.90;99.90;;;;;;4988970;28;20780;-73
2021/12/02 02:04:27;;;;;;;8.60;2.00;;;3.90;99.90;;;;;;4986708;28;20105;-74
2021/12/02 02:06:58;;;;;;;6.53;1.70;;;3.80;99.90;;;;;;4987004;28;20039;-73
2021/12/02 02:09:25;;;;;;;10.13;2.17;;;3.80;99.90;;;;;;4986479;28;20747;-73
2021/12/02 02:11:51;;;;;;;9.68;2.17;;;3.80;99.90;;;;;;4985898;28;20104;-73
2021/12/02 02:14:17;;;;;;;6.88;2.22;;;3.80;99.90;;;;;;4987315;28;20061;-73
2021/12/02 02:16:43;;;;;;;4.65;1.90;;;3.80;99.90;;;;;;4984416;28;20520;-73
2021/12/02 02:19:12;;;;;;;7.93;1.80;;;3.80;99.90;;;;;;4985975;28;20047;-73
2021/12/02 02:21:39;;;;;;;8.30;2.22;;;3.80;99.90;;;;;;4983901;28;20134;-74
2021/12/02 02:24:07;;;;;;;6.43;2.00;;;3.80;99.90;;;;;;4986751;28;20092;-73
2021/12/02 02:26:36;;;;;;;6.18;1.50;;;3.90;99.90;;;;;;4982391;28;20058;-73
2021/12/02 02:29:05;;;;;;;9.55;1.70;;;3.90;99.90;;;;;;4987156;28;20062;-72
2021/12/02 02:31:33;;;;;;;8.93;1.48;;;3.90;99.90;;;;;;4984481;28;20038;-73
2021/12/02 02:33:59;;;;;;;9.57;1.63;;;3.90;99.90;;;;;;4987461;28;20795;-73
2021/12/02 02:36:30;;;;;;;8.07;1.38;;;3.90;99.90;;;;;;4983511;28;20042;-74
2021/12/02 02:38:59;;;;;;;5.15;1.30;;;3.90;99.90;;;;;;4986415;28;20054;-74
2021/12/02 02:41:39;;;;;;;5.47;1.58;;;3.90;99.90;;;;;;4985554;28;20054;-74
2021/12/02 02:44:05;;;;;;;7.40;1.23;;;4.00;99.90;;;;;;4987174;28;20133;-73
2021/12/02 02:46:36;;;;;;;8.00;1.27;;;3.90;99.90;;;;;;4984354;28;20044;-73
2021/12/02 02:49:05;;;;;;;4.47;1.45;;;3.90;99.90;;;;;;4986618;28;20305;-74
2021/12/02 02:51:32;;;;;;;3.17;0.80;;;3.80;99.90;;;;;;4983544;28;20043;-73
2021/12/02 02:54:03;;;;;;;7.50;1.57;;;3.80;99.90;;;;;;4988073;28;20042;-74
2021/12/02 02:56:30;;;;;;;4.25;1.00;;;3.70;99.90;;;;;;4984975;28;20054;-74
2021/12/02 02:59:03;;;;;;;8.82;1.30;;;3.70;99.90;;;;;;4986643;28;20113;-73
2021/12/02 03:06:38;;;;;;;4.03;0.80;;;3.60;99.90;;;;;;4982743;28;20775;-73
2021/12/02 03:09:07;;;;;;;7.05;1.25;;;3.60;99.90;;;;;;4986714;28;20061;-73
2021/12/02 03:11:42;;;;;;;5.85;1.13;;;3.60;99.90;;;;;;4985673;28;20057;-73
2021/12/02 03:14:15;;;;;;;5.28;1.10;;;3.60;99.90;;;;;;4985031;28;20129;-73
2021/12/02 03:16:44;;;;;;;3.92;1.02;;;3.60;99.90;;;;;;4985144;28;20673;-73
2021/12/02 03:19:34;;;;;;;5.00;1.30;;;3.60;99.90;;;;;;4986375;28;20069;-73
2021/12/02 03:22:00;;;;;;;4.53;1.00;;;3.60;99.90;;;;;;4979649;28;20074;-73
2021/12/02 03:24:26;;;;;;;5.15;0.90;;;3.60;99.90;;;;;;4983365;28;20120;-73
2021/12/02 03:26:53;;;;;;;3.58;1.00;;;3.50;99.90;;;;;;4987237;28;20035;-74
2021/12/02 03:29:19;;;;;;;5.43;1.00;;;3.50;99.90;;;;;;4986154;28;20050;-73
2021/12/02 03:31:44;;;;;;;3.70;0.88;;;3.60;99.90;;;;;;4982381;28;20030;-73
2021/12/02 03:34:10;;;;;;;4.38;0.82;;;3.50;99.90;;;;;;4984603;28;20053;-73
2021/12/02 03:36:37;;;;;;;4.90;1.20;;;3.50;99.90;;;;;;4986036;28;20535;-73
2021/12/02 03:39:06;;;;;;;4.40;0.80;;;3.50;99.90;;;;;;4979208;28;20050;-73
2021/12/02 03:41:33;;;;;;;5.28;1.08;;;3.40;99.90;;;;;;4986251;28;20137;-73
2021/12/02 03:43:59;;;;;;;4.68;0.70;;;3.40;99.90;;;;;;4981141;28;21990;-73
2021/12/02 03:46:26;;;;;;;2.28;0.75;;;3.30;99.90;;;;;;4979398;28;20069;-73
2021/12/02 03:48:53;;;;;;;2.80;0.90;;;3.40;99.90;;;;;;4986311;28;20048;-73
2021/12/02 03:51:19;;;;;;;4.05;0.90;;;3.30;99.90;;;;;;4980955;28;20053;-73
2021/12/02 03:53:46;;;;;;;3.05;0.80;;;3.30;99.90;;;;;;4985729;28;20038;-73
2021/12/02 03:56:12;;;;;;;2.10;0.70;;;3.20;99.90;;;;;;4985667;28;20050;-73
2021/12/02 03:58:41;;;;;;;3.33;1.17;;;3.20;99.90;;;;;;4983503;28;20068;-73
2021/12/02 04:01:08;;;;;;;2.60;0.63;;;3.20;99.90;;;;;;4984723;28;20046;-73
2021/12/02 04:03:34;;;;;;;3.75;0.70;;;3.10;99.90;;;;;;4986366;28;20051;-73
2021/12/02 04:06:00;;;;;;;6.75;1.00;;;3.10;99.90;;;;;;4984413;28;20105;-73
2021/12/02 04:08:31;;;;;;;2.53;0.85;;;3.10;99.90;;;;;;4986146;28;20042;-73
2021/12/02 04:11:48;;;;;;;2.78;0.60;;;3.10;99.90;;;;;;4981713;28;20096;-73
2021/12/02 04:16:20;;;;;;;1.08;0.60;;;2.90;99.90;;;;;;4986370;28;20498;-74
2021/12/02 04:18:45;;;;;;;;;;;2.90;99.90;;;;;;4986029;28;20042;-72
2021/12/02 04:21:11;;;;;;;2.30;0.70;;;2.90;99.90;;;;;;4985305;28;20065;-73
2021/12/02 04:23:37;;;;;;;3.33;1.23;;;2.80;99.90;;;;;;4985167;28;20185;-73
2021/12/02 04:26:03;;;;;;;3.03;0.80;;;2.80;99.90;;;;;;4985727;28;20046;-73
2021/12/02 04:28:29;;;;;;;2.88;0.85;;;2.80;99.90;;;;;;4984536;28;20046;-73
2021/12/02 04:30:55;;;;;;;3.55;0.93;;;2.80;99.90;;;;;;4985410;28;20046;-73
2021/12/02 04:33:21;;;;;;;3.92;1.00;;;2.80;99.90;;;;;;4986857;28;20674;-74
2021/12/02 04:35:46;;;;;;;2.67;1.00;;;2.80;99.90;;;;;;4985097;28;20080;-73
2021/12/02 04:38:12;;;;;;;1.92;0.80;;;2.70;99.90;;;;;;4989602;28;20034;-73
2021/12/02 04:40:41;;;;;;;3.33;0.90;;;2.70;99.90;;;;;;4983907;28;20133;-73
2021/12/02 04:43:07;;;;;;;3.05;0.95;;;2.70;99.90;;;;;;4975283;28;20512;-73
2021/12/02 04:45:33;;;;;;;3.28;1.10;;;2.70;99.90;;;;;;4981928;28;20123;-73
2021/12/02 04:47:59;;;;;;;3.50;1.02;;;2.70;99.90;;;;;;4985245;28;20058;-73
2021/12/02 04:50:25;;;;;;;6.00;1.08;;;2.70;99.90;;;;;;4986635;28;20046;-73
2021/12/02 04:52:52;;;;;;;5.72;1.20;;;2.70;99.90;;;;;;4989843;28;20482;-73
2021/12/02 04:55:18;;;;;;;2.95;1.25;;;2.70;99.90;;;;;;4985756;28;20054;-73
2021/12/02 04:57:44;;;;;;;5.75;0.90;;;2.80;99.90;;;;;;4988232;28;20406;-73
2021/12/02 05:00:10;;;;;;;4.60;1.23;;;2.80;99.90;;;;;;4987740;28;20053;-73
2021/12/02 05:02:36;;;;;;;4.75;1.00;;;2.80;99.90;;;;;;4988990;28;20030;-73
2021/12/02 05:05:01;;;;;;;4.05;1.20;;;2.80;99.90;;;;;;4990117;28;20112;-73
2021/12/02 05:07:27;;;;;;;3.25;1.20;;;2.80;99.90;;;;;;4987086;28;20042;-73
2021/12/02 05:09:53;;;;;;;4.07;1.20;;;2.80;99.90;;;;;;4983777;28;20077;-73
2021/12/02 05:12:19;;;;;;;3.45;1.10;;;2.80;99.90;;;;;;4989398;28;20035;-73
2021/12/02 05:14:45;;;;;;;5.82;1.42;;;2.80;99.90;;;;;;4987600;28;20054;-73
2021/12/02 05:17:10;;;;;;;4.97;1.48;;;2.80;99.90;;;;;;4988380;28;20703;-73
2021/12/02 05:19:36;;;;;;;3.92;1.40;;;2.80;99.90;;;;;;4988666;28;20042;-73
2021/12/02 05:22:02;;;;;;;3.22;1.27;;;2.80;99.90;;;;;;4988389;28;20120;-73
2021/12/02 05:24:27;;;;;;;3.70;1.33;;;2.80;99.90;;;;;;4988696;28;20050;-73
2021/12/02 05:26:53;;;;;;;3.78;1.52;;;2.80;99.90;;;;;;4980582;28;20058;-73
2021/12/02 05:29:19;;;;;;;4.60;1.52;;;2.80;99.90;;;;;;4988270;28;20070;-73
2021/12/02 05:31:44;;;;;;;3.03;1.35;;;2.80;99.90;;;;;;4984875;28;20046;-73
2021/12/02 05:34:10;;;;;;;5.55;1.70;;;2.80;99.90;;;;;;4987379;28;20034;-73
2021/12/02 05:36:35;;;;;;;6.90;1.92;;;2.80;99.90;;;;;;4988343;28;20042;-73
2021/12/02 05:39:01;;;;;;;5.65;1.30;;;2.80;99.90;;;;;;4974274;28;20044;-73
2021/12/02 05:41:28;;;;;;;3.00;1.10;;;2.70;99.90;;;;;;4985213;28;20453;-73
2021/12/02 05:43:54;;;;;;;4.28;1.23;;;2.70;99.90;;;;;;4983207;28;20062;-73
2021/12/02 05:46:20;;;;;;;4.97;1.48;;;2.70;99.90;;;;;;4988366;28;20043;-73
2021/12/02 05:48:45;;;;;;;5.07;1.98;;;2.60;99.90;;;;;;4988140;28;20042;-73
2021/12/02 05:51:11;;;;;;;6.45;1.67;;;2.60;99.90;;;;;;4986736;28;20093;-73
2021/12/02 05:53:36;;;;;;;4.82;1.63;;;2.60;99.90;;;;;;4986119;28;20141;-73
2021/12/02 05:56:02;;;;;;;6.35;1.83;;;2.70;99.90;;;;;;4987547;28;20100;-73
2021/12/02 05:58:28;;;;;;;5.55;1.52;;;2.60;99.90;;;;;;4986794;28;20046;-73
2021/12/02 06:00:54;;;;;;;3.15;1.30;;;2.60;99.90;;;;;;4986323;28;20054;-73
2021/12/02 06:03:19;;;;;;;3.10;1.40;;;2.60;99.90;;;;;;4984840;28;20050;-73
2021/12/02 06:05:47;;;;;;;3.22;1.60;;;2.60;99.90;;;;;;4987522;28;20065;-73
2021/12/02 06:08:13;;;;;;;;;;;2.60;99.90;;;;;;4984922;28;20046;-73
2021/12/02 06:10:39;;;;;;;5.97;1.98;;;2.60;99.90;;;;;;4988877;28;20004;-71
2021/12/02 06:13:04;;;;;;;5.15;1.50;;;2.60;99.90;;;;;;4986246;28;20576;-72
2021/12/02 06:15:30;;;;;;;4.80;1.33;;;2.60;99.90;;;;;;4986338;28;20043;-73
2021/12/02 06:17:56;;;;;;;4.05;1.50;;;2.60;99.90;;;;;;4987350;28;20056;-73
2021/12/02 06:20:21;;;;;;;2.90;1.10;;;2.60;99.90;;;;;;4987464;28;20054;-73
2021/12/02 06:22:47;;;;;;;5.25;1.25;;;2.60;99.90;;;;;;4988020;28;20080;-73
2021/12/02 06:27:46;;;;;;;5.03;1.42;;;2.60;99.90;;;;;;4987524;28;20542;-73
2021/12/02 06:30:13;;;;;;;4.13;1.50;;;2.60;99.90;;;;;;4987568;28;20125;-73
2021/12/02 06:32:39;;;;;;;4.25;1.15;;;2.60;99.90;;;;;;4986834;28;20057;-73
2021/12/02 06:35:05;;;;;;;2.42;1.00;;;2.60;99.90;;;;;;4981783;28;20054;-73
2021/12/02 06:37:30;;;;;;;2.42;1.05;;;2.60;99.90;;;;;;4986094;28;20042;-73
2021/12/02 06:39:56;;;;;;;2.45;0.90;;;2.60;99.90;;;;;;4985634;28;20521;-73
2021/12/02 06:42:22;;;;;;;2.80;0.88;;;2.60;99.90;;;;;;4984456;28;20065;-73
2021/12/02 06:44:47;;;;;;;2.63;0.90;;;2.60;99.90;;;;;;4987845;28;20042;-73
2021/12/02 06:47:14;;;;;;;2.90;1.00;;;2.60;99.90;;;;;;4986469;28;20050;-72
2021/12/02 06:49:40;;;;;;;2.83;1.00;;;2.70;99.90;;;;;;4985985;28;20056;-73
2021/12/02 06:52:12;;;;;;;3.43;0.90;;;2.70;99.90;;;;;;4982767;28;20041;-72
2021/12/02 06:54:38;;;;;;;4.00;0.90;;;2.60;99.90;;;;;;4988215;28;20054;-73
2021/12/02 06:57:04;;;;;;;2.08;0.80;;;2.70;99.90;;;;;;4985979;28;20042;-73
2021/12/02 06:59:30;;;;;;;2.75;1.13;;;2.70;99.90;;;;;;4988379;28;20062;-73
2021/12/02 07:01:55;;;;;;;1.88;1.00;;;2.70;99.90;;;;;;4981338;28;20084;-73
2021/12/02 07:04:21;;;;;;;3.00;1.20;;;2.70;99.90;;;;;;4987679;28;20085;-74
2021/12/02 07:06:47;;;;;;;3.50;1.50;;;2.70;99.90;;;;;;4980562;28;20038;-72
2021/12/02 07:09:13;;;;;;;5.07;1.60;;;2.80;99.90;;;;;;4977595;28;20121;-73
2021/12/02 07:11:39;;;;;;;5.75;1.58;;;2.80;99.90;;;;;;4996796;28;20048;-73
2021/12/02 07:14:11;;;;;;;3.80;1.42;;;2.80;99.90;;;;;;4975572;28;20704;-72
2021/12/02 07:16:38;;;;;;;4.88;1.60;;;2.80;99.90;;;;;;4983189;28;20092;-73
2021/12/02 07:19:06;;;;;;;5.07;1.70;;;2.80;99.90;;;;;;4982819;28;20053;-72
2021/12/02 07:21:34;;;;;;;3.80;1.80;;;2.80;99.90;;;;;;4980025;28;20401;-72
2021/12/02 07:24:00;;;;;;;5.00;2.45;;;2.80;99.90;;;;;;4979909;28;20125;-73
2021/12/02 07:26:25;;;;;;;4.45;2.35;;;2.80;99.90;;;;;;4985675;28;20129;-73
2021/12/02 07:28:51;;;;;;;6.95;2.30;;;2.80;99.90;;;;;;4981589;28;20510;-73
2021/12/02 07:31:18;;;;;;;4.80;1.98;;;2.80;99.90;;;;;;4984186;28;20054;-73
2021/12/02 07:33:48;;;;;;;5.93;1.85;;;2.80;99.90;;;;;;4983898;28;20462;-73
2021/12/02 07:36:17;;;;;;;6.03;1.48;;;2.80;99.90;;;;;;4982075;28;20749;-74
2021/12/02 07:38:42;;;;;;;;;;;2.80;99.90;;;;;;4984138;28;20046;-73
2021/12/02 07:41:08;;;;;;;4.82;1.60;;;2.90;99.90;;;;;;4980634;28;19937;-73
2021/12/02 07:43:36;;;;;;;5.07;1.88;;;2.80;99.90;;;;;;4978746;28;20050;-73
2021/12/02 07:46:03;;;;;;;3.83;1.80;;;2.90;99.90;;;;;;4983281;28;20050;-73
2021/12/02 07:48:29;;;;;;;4.68;2.03;;;2.90;99.90;;;;;;4986002;28;20049;-74
2021/12/02 07:50:55;;;;;;;3.55;2.00;;;2.90;99.90;;;;;;4982526;28;20438;-73
2021/12/02 07:53:24;;;;;;;4.03;1.83;;;2.90;99.90;;;;;;4985348;28;20539;-74
2021/12/02 07:55:51;;;;;;;3.33;1.55;;;2.90;99.90;;;;;;4983520;28;20039;-73
2021/12/02 07:58:17;;;;;;;4.50;1.42;;;2.90;99.90;;;;;;4998480;28;20084;-73
2021/12/02 08:00:43;;;;;;;3.65;1.25;;;2.90;99.90;;;;;;4986416;28;20130;-73
2021/12/02 08:03:10;;;;;;;4.13;1.30;;;2.90;99.90;;;;;;4984640;28;20137;-73
2021/12/02 08:05:36;;;;;;;;;;;2.90;99.90;;;;;;4986648;28;20112;-73
2021/12/02 08:08:02;;;;;;;3.30;1.17;;;2.90;99.90;;;;;;4989476;28;19930;-73
2021/12/02 08:10:29;;;;;;;2.60;1.10;;;2.90;99.90;;;;;;4989331;28;20045;-74
2021/12/02 08:12:55;;;;;;;5.27;1.40;;;2.90;99.90;;;;;;4986790;28;20050;-73
2021/12/02 08:15:23;;;;;;;3.80;1.40;;;2.90;99.90;;;;;;4990633;28;20042;-74
2021/12/02 08:17:50;;;;;;;3.45;1.20;;;2.90;99.90;;;;;;5004161;28;20178;-73
2021/12/02 08:20:17;;;;;;;3.78;1.33;;;2.90;99.90;;;;;;4988931;28;20042;-73
2021/12/02 08:22:43;;;;;;;3.67;1.43;;;2.90;99.90;;;;;;4989417;28;20109;-74
2021/12/02 08:25:09;;;;;;;4.38;1.60;;;2.90;99.90;;;;;;4990438;28;20042;-74
2021/12/02 08:27:36;;;;;;;2.33;1.40;;;2.90;99.90;;;;;;4985807;28;20105;-74
2021/12/02 08:30:04;;;;;;;2.55;1.45;;;2.90;99.90;;;;;;4987145;28;20057;-74
2021/12/02 08:32:30;;;;;;;3.67;1.67;;;3.00;99.90;;;;;;4986245;28;20084;-74
2021/12/02 08:34:58;;;;;;;3.65;1.80;;;3.00;99.90;;;;;;4985226;28;20125;-81
2021/12/02 08:37:26;;;;;;;3.45;1.90;;;3.10;99.90;;;;;;4988825;28;20046;-78
2021/12/02 08:39:54;;;;;;;3.85;2.20;;;3.10;99.90;;;;;;4989113;28;20050;-81
2021/12/02 08:42:21;;;;;;;3.60;2.33;;;3.10;99.90;;;;;;4988090;28;20126;-81
2021/12/02 08:44:49;;;;;;;5.03;2.63;;;3.10;99.90;;;;;;4989231;28;20121;-79
2021/12/02 08:47:15;;;;;;;4.95;2.75;;;3.10;99.90;;;;;;4989405;28;20043;-77
2021/12/02 08:49:41;;;;;;;4.25;2.60;;;3.10;99.90;;;;;;4988594;28;20049;-79
2021/12/02 08:52:07;;;;;;;5.28;2.42;;;3.20;99.90;;;;;;4990224;28;20418;-79
2021/12/02 08:54:32;;;;;;;5.07;2.80;;;3.20;99.90;;;;;;4988963;28;20117;-82
2021/12/02 08:56:58;;;;;;;5.03;2.58;;;3.20;99.90;;;;;;4988445;28;20552;-81
2021/12/02 08:59:24;;;;;;;6.78;2.92;;;3.20;99.90;;;;;;4989770;28;20046;-82
2021/12/02 09:01:50;;;;;;;6.68;2.70;;;3.20;99.90;;;;;;4988301;28;20061;-81
2021/12/02 09:04:16;;;;;;;4.47;2.80;;;3.20;99.90;;;;;;4988069;28;20058;-83
2021/12/02 09:06:41;;;;;;;3.70;2.60;;;3.20;99.90;;;;;;4988742;28;20117;-82
2021/12/02 09:09:07;;;;;;;5.80;2.58;;;3.30;99.90;;;;;;4989246;28;20081;-81
2021/12/02 09:11:33;;;;;;;3.03;2.63;;;3.30;99.90;;;;;;4990386;28;20038;-80
2021/12/02 09:14:02;;;;;;;3.47;2.53;;;3.30;99.90;;;;;;4988680;28;20058;-72
2021/12/02 09:16:29;;;;;;;3.17;2.65;;;3.30;99.90;;;;;;4988269;28;20049;-81
2021/12/02 09:18:56;;;;;;;4.13;2.60;;;3.30;99.90;;;;;;4987574;28;20117;-80
2021/12/02 09:21:23;;;;;;;5.22;2.60;;;3.30;99.90;;;;;;4990509;28;20046;-80
2021/12/02 09:23:49;;;;;;;3.43;2.30;;;3.30;99.90;;;;;;4986638;28;20050;-75
2021/12/02 09:26:15;;;;;;;5.45;2.33;;;3.30;99.90;;;;;;4988172;28;20055;-80
2021/12/02 09:28:41;;;;;;;2.53;2.33;;;3.30;99.90;;;;;;4988553;28;20042;-79
2021/12/02 09:31:06;;;;;;;3.92;2.58;;;3.30;99.90;;;;;;4988675;28;20058;-81
2021/12/02 09:33:32;;;;;;;3.63;2.33;;;3.30;99.90;;;;;;4989430;28;20034;-83
2021/12/02 09:35:58;;;;;;;4.85;2.42;;;3.30;99.90;;;;;;4988435;28;20190;-82
2021/12/02 09:38:23;;;;;;;3.40;2.20;;;3.30;99.90;;;;;;4989971;28;20419;-79
2021/12/02 09:40:49;;;;;;;2.92;2.00;;;3.20;99.90;;;;;;4987800;28;20050;-77
2021/12/02 09:43:15;;;;;;;3.13;2.25;;;3.20;99.90;;;;;;4987832;28;20053;-79
2021/12/02 09:45:42;;;;;;;3.28;2.20;;;3.20;99.90;;;;;;4987319;28;20050;-79
2021/12/02 09:48:09;;;;;;;3.47;2.50;;;3.20;99.90;;;;;;4986934;28;20042;-73
2021/12/02 09:50:50;;;;;;;3.60;2.30;;;3.20;99.90;;;;;;4986643;28;20062;-75
2021/12/02 09:53:19;;;;;;;4.53;2.40;;;3.20;99.90;;;;;;4989146;28;20413;-74
2021/12/02 09:56:07;;;;;;;4.03;2.47;;;3.20;99.90;;;;;;4988223;28;20388;-74
2021/12/02 09:58:32;;;;;;;4.50;2.80;;;3.30;99.90;;;;;;4987828;28;20057;-74
2021/12/02 10:03:35;;;;;;;5.50;2.30;;;3.40;99.90;;;;;;4987481;28;20051;-74
2021/12/02 10:06:08;;;;;;;3.78;2.40;;;3.50;99.90;;;;;;4978033;28;20058;-75
2021/12/02 10:08:55;;;;;;;3.65;2.30;;;3.60;99.90;;;;;;4983950;28;20053;-77
2021/12/02 10:14:39;;;;;;;4.47;2.20;;;3.60;99.90;;;;;;4987529;28;20058;-77
2021/12/02 10:17:15;;;;;;;4.20;2.13;;;3.70;99.90;;;;;;4978581;28;20117;-78
2021/12/02 10:23:06;;;;;;;3.58;2.38;;;3.80;99.90;;;;;;4989228;28;20650;-79
2021/12/02 10:25:34;;;;;;;5.07;2.20;;;3.80;99.90;;;;;;4985786;28;20054;-79
2021/12/02 10:28:11;;;;;;;3.42;2.17;;;3.80;99.90;;;;;;4987197;28;20125;-77
2021/12/02 10:30:43;;;;;;;3.17;2.00;;;3.80;99.90;;;;;;4987673;28;20546;-78
2021/12/02 10:33:09;;;;;;;2.15;1.90;;;3.80;99.90;;;;;;4988164;28;20042;-77
2021/12/02 10:35:44;;;;;;;4.17;1.97;;;3.80;99.90;;;;;;4985582;28;20049;-75
2021/12/02 10:38:46;;;;;;;2.55;1.70;;;3.90;99.90;;;;;;4987406;28;20066;-74
2021/12/02 10:41:17;;;;;;;2.30;1.77;;;3.90;99.90;;;;;;4984326;28;20046;-74
2021/12/02 10:44:02;;;;;;;4.07;1.85;;;4.00;99.90;;;;;;4985686;28;20401;-74
2021/12/02 10:46:27;;;;;;;2.20;1.83;;;4.10;99.90;;;;;;4988947;28;20137;-74
2021/12/02 10:48:53;;;;;;;2.42;1.70;;;4.10;99.90;;;;;;4986116;28;20153;-74
2021/12/02 10:52:01;;;;;;;2.90;1.77;;;4.20;99.90;;;;;;4986020;28;20074;-74
2021/12/02 10:54:35;;;;;;;2.15;1.83;;;4.20;99.90;;;;;;4986691;28;20041;-75
2021/12/02 10:57:08;;;;;;;2.25;1.58;;;4.20;99.90;;;;;;4987400;28;20141;-77
2021/12/02 10:59:39;;;;;;;6.95;2.13;;;4.30;99.90;;;;;;4987257;28;20046;-77
2021/12/02 11:02:24;;;;;;;2.95;1.98;;;4.30;99.90;;;;;;4967379;28;20097;-76
2021/12/02 11:05:08;;;;;;;3.35;1.95;;;4.40;99.90;;;;;;4972246;28;20109;-75
2021/12/02 11:07:39;;;;;;;3.72;1.95;;;4.40;99.90;;;;;;4985408;28;20417;-76
2021/12/02 11:10:15;;;;;;;4.70;1.80;;;4.50;99.90;;;;;;4985659;28;20052;-75
2021/12/02 11:12:42;;;;;;;3.15;1.75;;;4.60;99.90;;;;;;4987131;28;20042;-75
2021/12/02 11:15:20;;;;;;;5.53;1.90;;;4.60;99.90;;;;;;4986160;28;20523;-76
2021/12/02 11:17:53;;;;;;;3.75;1.60;;;4.70;99.90;;;;;;4987168;28;20046;-74
2021/12/02 11:20:32;;;;;;;3.67;1.50;;;4.70;99.90;;;;;;4984038;28;20075;-75
2021/12/02 11:23:02;;;;;;;3.75;1.63;;;4.70;99.90;;;;;;4967824;28;20054;-76
2021/12/02 11:25:29;;;;;;;3.47;2.20;;;4.60;99.90;;;;;;4975360;28;20050;-77
2021/12/02 11:27:55;;;;;;;3.95;2.58;;;4.50;99.90;;;;;;4988100;28;20460;-77
2021/12/02 11:30:29;;;;;;;6.10;2.83;;;4.40;99.90;;;;;;4986357;28;20038;-71
2021/12/02 11:33:00;;;;;;;2.92;2.45;;;4.30;99.90;;;;;;4986260;28;20050;-73
2021/12/02 11:35:37;;;;;;;3.33;2.08;;;4.20;99.90;;;;;;4987281;28;20113;-72
2021/12/02 11:38:19;;;;;;;3.95;2.50;;;4.10;99.90;;;;;;4988281;28;20038;-75
2021/12/02 11:40:51;;;;;;;6.82;2.72;;;4.00;99.90;;;;;;4975128;28;20057;-75
2021/12/02 11:43:20;;;;;;;3.78;3.00;;;4.00;99.90;;;;;;4990550;28;20092;-75
2021/12/02 11:45:49;;;;;;;4.07;3.10;;;3.90;99.90;;;;;;4992216;28;20042;-75
2021/12/02 11:48:21;;;;;;;4.20;2.58;;;3.90;99.90;;;;;;4991302;28;20053;-76
2021/12/02 11:50:49;;;;;;;4.90;2.30;;;3.90;99.90;;;;;;4989278;28;20054;-74
2021/12/02 11:53:20;;;;;;;4.15;2.53;;;3.80;99.90;;;;;;4990950;28;20050;-71
2021/12/02 11:55:47;;;;;;;5.28;3.10;;;3.80;99.90;;;;;;4990835;28;20061;-75
2021/12/02 11:58:12;;;;;;;3.97;3.58;;;3.80;99.90;;;;;;4987810;28;20054;-76
2021/12/02 12:00:38;;;;;;;4.15;3.50;;;3.80;99.90;;;;;;4991411;28;20125;-74
2021/12/02 12:03:11;;;;;;;5.28;3.20;;;3.80;99.90;;;;;;4989505;28;20046;-72
2021/12/02 12:05:39;;;;;;;4.85;2.72;;;3.80;99.90;;;;;;4988723;28;20054;-75
2021/12/02 12:08:06;;;;;;;5.50;3.05;;;3.90;99.90;;;;;;4990073;28;20046;-71
2021/12/02 12:10:42;;;;;;;3.95;2.60;;;3.90;99.90;;;;;;4991627;28;20654;-72
2021/12/02 12:13:23;;;;;;;3.85;2.70;;;3.80;99.90;;;;;;4986908;28;20084;-77
2021/12/02 12:15:52;;;;;;;3.30;2.50;;;3.80;99.90;;;;;;4989885;28;20058;-74
2021/12/02 12:18:39;;;;;;;4.38;1.60;;;3.70;99.90;;;;;;4988200;28;20058;-76
2021/12/02 12:21:06;;;;;;;2.03;1.30;;;3.70;99.90;;;;;;4977200;28;20050;-76
2021/12/02 12:23:57;;;;;;;4.53;1.42;;;3.60;99.90;;;;;;4989072;28;20113;-76
2021/12/02 12:26:27;;;;;;;3.67;1.40;;;3.60;99.90;;;;;;4986907;28;20506;-75
2021/12/02 12:29:08;;;;;;;2.85;1.40;;;3.60;99.90;;;;;;4990691;28;20045;-75
2021/12/02 12:31:45;;;;;;;4.32;1.38;;;3.60;99.90;;;;;;4985146;28;20046;-73
2021/12/02 12:34:35;;;;;;;4.00;1.30;;;3.60;99.90;;;;;;4986215;28;20038;-75
2021/12/02 12:40:15;;;;;;;;;;;3.60;99.90;;;;;;4987977;28;20050;-72
2021/12/02 12:43:02;;;;;;;3.63;0.98;;;3.60;99.90;;;;;;4987028;28;19964;-74
2021/12/02 12:45:29;;;;;;;3.30;0.93;;;3.60;99.90;;;;;;4987958;28;20076;-73
2021/12/02 12:47:59;;;;;;;;;;;3.60;99.90;;;;;;4989025;28;20054;-71
2021/12/02 12:50:25;;;;;;;2.05;0.80;;;3.60;99.90;;;;;;4990968;28;19980;-71
2021/12/02 12:53:06;;;;;;;0.68;0.60;;;3.50;99.90;;;;;;4988274;28;20085;-71
2021/12/02 12:55:38;;;;;;;3.30;0.50;;;3.50;99.90;;;;;;4988805;28;20577;-71
2021/12/02 12:58:15;;;;;;;1.90;0.70;;;3.50;99.90;;;;;;4983692;28;20182;-73
2021/12/02 13:01:05;;;;;;;1.27;0.60;;;3.40;99.90;;;;;;4976165;28;20049;-74
2021/12/02 13:03:45;;;;;;;2.45;0.77;;;3.40;99.90;;;;;;4988067;28;20065;-74
2021/12/02 13:06:32;;;;;;;3.70;0.77;;;3.30;99.90;;;;;;4978946;28;20691;-74
2021/12/02 13:09:05;;;;;;;1.10;0.60;;;3.30;99.90;;;;;;4986005;28;20058;-71
2021/12/02 13:11:33;;;;;;;2.53;0.90;;;3.30;99.90;;;;;;4987656;28;20077;-74
2021/12/02 13:14:02;;;;;;;2.10;1.60;;;3.30;99.90;;;;;;4989893;28;20518;-75
2021/12/02 13:16:34;;;;;;;2.45;1.88;;;3.30;99.90;;;;;;4984846;28;20050;-72
2021/12/02 13:19:14;;;;;;;2.63;2.42;;;3.40;99.90;;;;;;4987599;28;20034;-71
2021/12/02 13:21:41;;;;;;;3.78;3.00;;;3.40;99.90;;;;;;4987697;28;20057;-72
2021/12/02 13:24:18;;;;;;;5.57;3.13;;;3.40;99.90;;;;;;4990432;28;20054;-72
2021/12/02 13:27:02;;;;;;;3.47;3.17;;;3.40;99.90;;;;;;4990034;28;20046;-72
2021/12/02 13:29:30;;;;;;;4.18;3.30;;;3.30;99.90;;;;;;4986512;28;20034;-73
2021/12/02 13:32:11;;;;;;;3.92;3.50;;;3.30;99.90;;;;;;4985090;28;20650;-69